createdAt,value
2022-08-04T00:04:05.438Z,16.50
2022-08-04T00:07:47.243Z,16.40
2022-08-04T00:11:31.403Z,16.30
2022-08-04T00:15:16.468Z,16.30
2022-08-04T00:19:04.038Z,16.20
2022-08-04T00:22:46.548Z,16.00
2022-08-04T00:26:28.714Z,15.90
2022-08-04T00:30:10.878Z,15.70
2022-08-04T00:33:52.654Z,15.60
2022-08-04T00:37:34.525Z,15.40
2022-08-04T00:41:55.009Z,15.30
2022-08-04T00:46:16.051Z,15.20
2022-08-04T00:49:53.810Z,15.10
2022-08-04T00:53:49.653Z,14.90
2022-08-04T00:57:57.769Z,14.80
2022-08-04T01:02:20.571Z,14.70
2022-08-04T01:06:11.318Z,14.60
2022-08-04T01:10:01.868Z,14.60
2022-08-04T01:13:46.689Z,14.60
2022-08-04T01:18:06.469Z,14.50
2022-08-04T01:22:03.342Z,14.40
2022-08-04T01:25:51.210Z,14.40
2022-08-04T01:29:47.415Z,14.20
2022-08-04T01:33:31.010Z,14.20
2022-08-04T01:37:57.754Z,14.10
2022-08-04T01:41:39.542Z,14.10
2022-08-04T01:45:21.806Z,14.10
2022-08-04T01:49:03.660Z,14.10
2022-08-04T01:52:50.749Z,14.20
2022-08-04T01:56:32.885Z,14.20
2022-08-04T02:00:16.732Z,14.20
2022-08-04T02:04:18.363Z,14.10
2022-08-04T02:08:12.667Z,14.00
2022-08-04T02:12:22.464Z,13.90
2022-08-04T02:16:22.058Z,13.80
2022-08-04T02:20:16.585Z,13.70
2022-08-04T02:24:07.078Z,13.60
2022-08-04T02:28:01.067Z,13.70
2022-08-04T02:31:54.939Z,13.80
2022-08-04T02:35:38.119Z,13.90
2022-08-04T02:39:20.826Z,14.10
2022-08-04T02:43:03.075Z,14.10
2022-08-04T02:46:44.870Z,14.20
2022-08-04T02:50:28.995Z,14.10
2022-08-04T02:54:11.352Z,14.00
2022-08-04T02:57:53.143Z,14.00
2022-08-04T03:01:35.229Z,13.80
2022-08-04T03:05:25.845Z,13.70
2022-08-04T03:09:46.643Z,13.60
2022-08-04T03:13:37.222Z,13.60
2022-08-04T03:17:53.649Z,13.50
2022-08-04T03:22:02.762Z,13.50
2022-08-04T03:25:57.264Z,13.40
2022-08-04T03:29:57.965Z,13.50
2022-08-04T03:33:51.222Z,13.60
2022-08-04T03:37:51.491Z,13.60
2022-08-04T03:42:03.520Z,13.50
2022-08-04T03:45:58.268Z,13.40
2022-08-04T03:50:02.032Z,13.40
2022-08-04T03:53:54.292Z,13.30
2022-08-04T03:58:10.230Z,13.30
2022-08-04T04:02:08.146Z,13.30
2022-08-04T04:06:15.179Z,13.20
2022-08-04T04:10:29.545Z,13.20
2022-08-04T04:14:43.794Z,13.20
2022-08-04T04:18:35.624Z,13.20
2022-08-04T04:22:42.003Z,13.20
2022-08-04T04:26:40.380Z,13.10
2022-08-04T04:30:45.851Z,13.10
2022-08-04T04:34:46.584Z,13.10
2022-08-04T04:38:37.099Z,13.00
2022-08-04T04:42:49.825Z,13.10
2022-08-04T04:46:38.922Z,13.20
2022-08-04T04:50:44.917Z,13.30
2022-08-04T04:54:46.227Z,13.50
2022-08-04T04:58:28.047Z,13.50
2022-08-04T05:02:34.890Z,13.60
2022-08-04T05:06:35.230Z,13.60
2022-08-04T05:10:17.042Z,13.50
2022-08-04T05:14:35.738Z,13.50
2022-08-04T05:18:09.625Z,13.50
2022-08-04T05:21:58.097Z,13.50
2022-08-04T05:25:58.758Z,13.60
2022-08-04T05:29:51.780Z,13.60
2022-08-04T05:33:43.147Z,13.70
2022-08-04T05:37:24.990Z,13.70
2022-08-04T05:41:12.145Z,13.80
2022-08-04T05:44:54.486Z,13.80
2022-08-04T05:48:36.301Z,13.90
2022-08-04T05:52:18.091Z,13.90
2022-08-04T05:56:00.625Z,14.00
2022-08-04T05:59:46.450Z,14.00
2022-08-04T06:03:29.867Z,14.00
2022-08-04T06:07:11.672Z,14.10
2022-08-04T06:10:53.789Z,14.10
2022-08-04T06:14:40.745Z,14.20
2022-08-04T06:19:58.941Z,14.30
2022-08-04T06:22:24.444Z,14.40
2022-08-04T06:26:06.900Z,14.50
2022-08-04T06:29:51.459Z,14.60
2022-08-04T06:33:55.003Z,14.70
2022-08-04T06:37:42.439Z,14.90
2022-08-04T06:41:26.305Z,15.00
2022-08-04T06:45:08.535Z,15.20
2022-08-04T06:48:50.351Z,15.40
2022-08-04T06:52:32.283Z,15.60
2022-08-04T06:56:15.806Z,15.80
2022-08-04T07:00:03.658Z,16.00
2022-08-04T07:03:45.573Z,16.20
2022-08-04T07:07:36.592Z,16.40
2022-08-04T07:11:44.157Z,16.60
2022-08-04T07:15:27.043Z,16.90
2022-08-04T07:19:10.566Z,17.10
2022-08-04T07:22:53.962Z,17.50
2022-08-04T07:26:35.775Z,17.70
2022-08-04T07:30:20.635Z,17.90
2022-08-04T07:34:17.395Z,18.20
2022-08-04T07:38:03.423Z,18.50
2022-08-04T07:41:48.882Z,19.00
2022-08-04T07:45:30.879Z,19.30
2022-08-04T07:49:12.777Z,19.70
2022-08-04T07:53:54.117Z,19.90
2022-08-04T07:57:40.041Z,20.30
2022-08-04T08:01:23.624Z,20.60
2022-08-04T08:05:05.776Z,21.00
2022-08-04T08:08:47.613Z,21.50
2022-08-04T08:12:37.697Z,21.80
2022-08-04T08:16:33.618Z,22.00
2022-08-04T08:20:15.492Z,22.10
2022-08-04T08:24:12.776Z,22.10
2022-08-04T08:27:55.776Z,22.10
2022-08-04T08:31:57.449Z,22.10
2022-08-04T08:36:01.008Z,22.20
2022-08-04T08:39:59.447Z,22.30
2022-08-04T08:44:29.992Z,22.30
2022-08-04T08:48:25.103Z,22.50
2022-08-04T08:52:57.288Z,23.00
2022-08-04T08:56:47.917Z,23.40
2022-08-04T09:00:47.822Z,24.20
2022-08-04T09:05:00.238Z,25.20
2022-08-04T09:09:01.580Z,26.20
2022-08-04T09:13:05.067Z,26.70
2022-08-04T09:17:02.784Z,26.80
2022-08-04T09:20:49.319Z,26.70
2022-08-04T09:24:51.162Z,26.60
2022-08-04T09:28:53.683Z,26.50
2022-08-04T09:32:39.759Z,26.40
2022-08-04T09:36:43.421Z,26.10
2022-08-04T09:40:52.458Z,26.00
2022-08-04T09:45:06.599Z,26.00
2022-08-04T09:49:16.345Z,26.20
2022-08-04T09:53:06.820Z,26.40
2022-08-04T09:57:16.503Z,26.90
2022-08-04T10:01:03.144Z,27.70
2022-08-04T10:04:45.022Z,29.20
2022-08-04T10:08:56.951Z,30.50
2022-08-04T10:12:50.470Z,31.30
2022-08-04T10:16:44.577Z,32.00
2022-08-04T10:20:59.989Z,32.40
2022-08-04T10:25:40.458Z,32.50
2022-08-04T10:29:47.312Z,33.30
2022-08-04T10:33:32.212Z,34.50
2022-08-04T10:37:59.795Z,34.80
2022-08-04T10:41:38.162Z,35.30
2022-08-04T10:45:23.800Z,35.50
2022-08-04T10:49:36.713Z,35.90
2022-08-04T10:53:20.777Z,37.00
2022-08-04T10:57:08.891Z,37.40
2022-08-04T11:00:54.291Z,37.00
2022-08-04T11:04:47.558Z,36.60
2022-08-04T11:08:43.405Z,36.50
2022-08-04T11:12:26.031Z,36.20
2022-08-04T11:16:13.580Z,35.50
2022-08-04T11:20:34.049Z,34.60
2022-08-04T11:24:22.843Z,33.80
2022-08-04T11:28:30.602Z,33.20
2022-08-04T11:32:20.848Z,32.30
2022-08-04T11:36:18.612Z,32.90
2022-08-04T11:40:12.889Z,33.70
2022-08-04T11:44:03.342Z,34.20
2022-08-04T11:48:07.193Z,34.30
2022-08-04T11:51:49.007Z,34.00
2022-08-04T11:55:30.866Z,33.40
2022-08-04T11:59:12.697Z,32.60
2022-08-04T12:03:18.142Z,32.20
2022-08-04T12:07:40.638Z,32.40
2022-08-04T12:11:25.048Z,32.40
2022-08-04T12:15:15.591Z,31.90
2022-08-04T12:19:06.676Z,31.20
2022-08-04T12:22:50.557Z,30.80
2022-08-04T12:26:38.501Z,31.00
2022-08-04T12:31:00.535Z,31.50
2022-08-04T12:34:25.300Z,31.90
2022-08-04T12:38:15.219Z,32.00
2022-08-04T12:42:20.837Z,32.10
2022-08-04T12:46:05.119Z,32.40
2022-08-04T12:50:00.263Z,32.50
2022-08-04T12:53:51.393Z,32.70
2022-08-04T12:57:34.280Z,33.90
2022-08-04T13:02:10.744Z,34.90
2022-08-04T13:05:22.271Z,35.80
2022-08-04T13:09:06.629Z,36.50
2022-08-04T13:13:00.393Z,36.10
2022-08-04T13:16:42.246Z,35.50
2022-08-04T13:20:36.439Z,35.00
2022-08-04T13:24:22.819Z,35.30
2022-08-04T13:28:27.105Z,35.80
2022-08-04T13:32:09.188Z,35.70
2022-08-04T13:35:54.820Z,36.10
2022-08-04T13:39:38.185Z,36.10
2022-08-04T13:44:15.535Z,36.30
2022-08-04T13:47:30.512Z,36.90
2022-08-04T13:51:12.389Z,36.50
2022-08-04T13:54:54.234Z,36.10
2022-08-04T13:58:41.002Z,36.30
2022-08-04T14:02:39.275Z,35.40
2022-08-04T14:06:34.771Z,34.30
2022-08-04T14:10:16.612Z,32.90
2022-08-04T14:13:58.446Z,31.40
2022-08-04T14:17:40.276Z,30.80
2022-08-04T14:21:22.189Z,31.40
2022-08-04T14:25:15.302Z,32.20
2022-08-04T14:29:27.376Z,32.70
2022-08-04T14:34:00.987Z,33.50
2022-08-04T14:37:19.553Z,33.40
2022-08-04T14:41:02.151Z,33.10
2022-08-04T14:44:58.003Z,32.40
2022-08-04T14:48:42.965Z,33.40
2022-08-04T14:52:26.269Z,33.90
2022-08-04T14:56:20.057Z,34.20
2022-08-04T15:00:13.519Z,33.90
2022-08-04T15:03:57.686Z,33.40
2022-08-04T15:07:39.488Z,33.10
2022-08-04T15:11:23.396Z,32.50
2022-08-04T15:15:34.022Z,32.70
2022-08-04T15:19:08.066Z,33.50
2022-08-04T15:22:49.935Z,34.30
2022-08-04T15:26:39.657Z,34.80
2022-08-04T15:30:21.502Z,35.50
2022-08-04T15:34:03.316Z,36.40
2022-08-04T15:38:06.504Z,36.40
2022-08-04T15:41:55.774Z,35.00
2022-08-04T15:46:02.529Z,33.80
2022-08-04T15:50:08.427Z,32.70
2022-08-04T15:54:03.657Z,32.90
2022-08-04T15:58:14.161Z,33.40
2022-08-04T16:02:34.614Z,33.50
2022-08-04T16:06:16.543Z,34.30
2022-08-04T16:10:44.359Z,35.00
2022-08-04T16:14:33.663Z,35.50
2022-08-04T16:18:30.772Z,36.10
2022-08-04T16:22:14.014Z,36.10
2022-08-04T16:25:55.891Z,37.00
2022-08-04T16:29:39.601Z,37.30
2022-08-04T16:33:28.099Z,37.30
2022-08-04T16:37:38.786Z,37.80
2022-08-04T16:41:38.730Z,38.10
2022-08-04T16:45:20.560Z,37.90
2022-08-04T16:49:05.942Z,37.80
2022-08-04T16:52:49.197Z,38.40
2022-08-04T16:56:33.776Z,38.40
2022-08-04T17:00:16.341Z,37.50
2022-08-04T17:04:04.617Z,37.40
2022-08-04T17:08:13.141Z,37.70
2022-08-04T17:12:02.234Z,38.50
2022-08-04T17:15:44.335Z,39.10
2022-08-04T17:19:26.986Z,38.80
2022-08-04T17:24:16.307Z,38.60
2022-08-04T17:28:08.889Z,38.90
2022-08-04T17:31:47.050Z,38.90
2022-08-04T17:35:38.551Z,38.70
2022-08-04T17:39:22.998Z,37.30
2022-08-04T17:44:03.052Z,36.80
2022-08-04T17:47:19.545Z,36.20
2022-08-04T17:55:20.480Z,36.50
2022-08-04T17:59:14.859Z,37.30
2022-08-04T18:03:29.961Z,37.70
2022-08-04T18:08:38.803Z,37.70
2022-08-04T18:11:21.953Z,37.70
2022-08-04T18:15:21.296Z,37.70
2022-08-04T18:19:14.719Z,37.30
2022-08-04T18:22:56.661Z,36.70
2022-08-04T18:26:39.397Z,36.10
2022-08-04T18:30:39.085Z,35.20
2022-08-04T18:34:27.046Z,33.70
2022-08-04T18:38:22.083Z,31.90
2022-08-04T18:42:04.749Z,30.60
2022-08-04T18:45:51.433Z,29.30
2022-08-04T18:51:00.231Z,28.30
2022-08-04T18:53:36.211Z,27.40
2022-08-04T18:57:32.851Z,26.50
2022-08-04T19:01:29.577Z,25.90
2022-08-04T19:05:17.594Z,25.30
2022-08-04T19:09:01.218Z,24.80
2022-08-04T19:12:43.036Z,24.40
2022-08-04T19:16:31.491Z,24.00
2022-08-04T19:20:24.264Z,23.70
2022-08-04T19:24:27.909Z,23.40
2022-08-04T19:28:09.805Z,23.10
2022-08-04T19:31:59.751Z,22.90
2022-08-04T19:35:46.013Z,22.50
2022-08-04T19:39:28.123Z,22.20
2022-08-04T19:43:14.502Z,22.00
2022-08-04T19:47:00.444Z,21.70
2022-08-04T19:50:43.992Z,21.30
2022-08-04T19:54:27.563Z,21.00
2022-08-04T19:58:09.526Z,20.70
2022-08-04T20:01:51.953Z,20.50
2022-08-04T20:05:54.905Z,20.20
2022-08-04T20:09:37.677Z,20.00
2022-08-04T20:13:25.456Z,19.70
2022-08-04T20:17:12.898Z,19.50
2022-08-04T20:21:00.138Z,19.30
2022-08-04T20:24:50.398Z,19.20
2022-08-04T20:28:42.016Z,19.00
2022-08-04T20:32:28.084Z,19.00
2022-08-04T20:36:10.085Z,18.90
2022-08-04T20:39:57.988Z,18.80
2022-08-04T20:43:39.786Z,18.70
2022-08-04T20:47:23.275Z,18.60
2022-08-04T20:51:05.593Z,18.50
2022-08-04T20:54:48.532Z,18.40
2022-08-04T20:58:30.834Z,18.30
2022-08-04T21:02:16.464Z,18.20
2022-08-04T21:05:58.587Z,18.20
2022-08-04T21:09:50.990Z,18.00
2022-08-04T21:13:50.527Z,18.00
2022-08-04T21:17:57.531Z,17.80
2022-08-04T21:21:38.051Z,17.70
2022-08-04T21:25:20.274Z,17.50
2022-08-04T21:29:03.837Z,17.40
2022-08-04T21:32:45.791Z,17.30
2022-08-04T21:36:29.534Z,17.20
2022-08-04T21:40:14.195Z,17.00
2022-08-04T21:43:58.585Z,16.90
2022-08-04T21:47:46.418Z,16.80
2022-08-04T21:51:57.792Z,16.60
2022-08-04T21:56:06.324Z,16.50
2022-08-04T21:59:45.892Z,16.40
2022-08-04T22:07:50.898Z,16.10
2022-08-04T22:19:50.005Z,15.70
2022-08-04T22:23:45.601Z,15.60
2022-08-04T22:27:54.939Z,15.50
2022-08-04T22:31:56.876Z,15.40
2022-08-04T22:35:44.172Z,15.40
2022-08-04T22:39:31.404Z,15.40
2022-08-04T22:43:32.358Z,15.40
2022-08-04T22:47:20.176Z,15.40
2022-08-04T22:51:03.048Z,15.40
2022-08-04T22:54:45.317Z,15.40
2022-08-04T22:58:28.542Z,15.40
2022-08-04T23:02:10.569Z,15.30
2022-08-04T23:05:52.567Z,15.40
2022-08-04T23:09:49.960Z,15.40
2022-08-04T23:13:33.247Z,15.40
2022-08-04T23:17:15.249Z,15.50
2022-08-04T23:20:57.776Z,15.50
2022-08-04T23:24:39.568Z,15.60
2022-08-04T23:28:22.985Z,15.60
2022-08-04T23:32:06.176Z,15.60
2022-08-04T23:35:47.941Z,15.60
2022-08-04T23:40:03.337Z,15.60
2022-08-04T23:43:38.543Z,15.60
2022-08-04T23:48:18.419Z,15.60
2022-08-04T23:51:33.089Z,15.60
2022-08-04T23:55:15.780Z,15.60
2022-08-04T23:59:03.962Z,15.50
